LYBE/BEG METAR and TAF weather

Enter ICAO airport designator
Station Type Date Time Source
LYBE METAR 2021/05/15 01:30 UTC NOAA

LYBE 150130Z 00000KT CAVOK 13/12 Q1010 NOSIG


Station Type Date Time Source
LYBE Decoded METAR 2021/05/15 01:30 UTC NOAA

Beograd / Surcin, Serbia and Montenegro (LYBE) 44-49N 020-17E 99M
May 14, 2021 - 09:30 PM EDT / 2021.05.15 0130 UTC
Wind: Calm:0
Visibility: greater than 7 mile(s):0
Temperature: 55 F (13 C)
Dew Point: 53 F (12 C)
Relative Humidity: 93%
Pressure (altimeter): 29.83 in. Hg (1010 hPa)
ob: LYBE 150130Z 00000KT CAVOK 13/12 Q1010 NOSIG
cycle: 1

Station Type Date Time Source
LYBE TAF 2021/05/14 18:22 UTC NOAA

TAF LYBE 141700Z 1418/1518 24008KT CAVOK TX23/1513Z TN11/1504Z
TEMPO 1423/1504 3000 BR PROB40
TEMPO 1511/1515 27015G25KT 5000 TSRA SCT033CB SCT040

Example: see airport list